createdAt,value
2017-03-05T00:00:41.776Z,0
2017-03-05T00:01:41.772Z,0
2017-03-05T00:02:41.734Z,0
2017-03-05T00:03:41.345Z,0
2017-03-05T00:04:42.081Z,0
2017-03-05T00:05:41.724Z,0
2017-03-05T00:06:42.024Z,0
2017-03-05T00:07:42.023Z,0
2017-03-05T00:08:41.223Z,0
2017-03-05T00:09:41.582Z,0
2017-03-05T00:10:42.010Z,0
2017-03-05T00:11:41.938Z,0
2017-03-05T00:12:41.949Z,0
2017-03-05T00:13:41.186Z,0
2017-03-05T00:14:41.870Z,0
2017-03-05T00:15:41.538Z,0
2017-03-05T00:16:41.822Z,0
2017-03-05T00:17:41.802Z,0
2017-03-05T00:18:41.803Z,0
2017-03-05T00:19:41.791Z,0
2017-03-05T00:20:40.975Z,0
2017-03-05T00:21:41.345Z,0
2017-03-05T00:22:40.908Z,0
2017-03-05T00:23:40.602Z,0
2017-03-05T00:24:41.663Z,0
2017-03-05T00:25:41.637Z,0
2017-03-05T00:26:41.634Z,0
2017-03-05T00:27:40.821Z,0
2017-03-05T00:28:41.301Z,0
2017-03-05T00:29:41.581Z,0
2017-03-05T00:30:41.198Z,0
2017-03-05T00:31:41.160Z,0
2017-03-05T00:32:41.542Z,0
2017-03-05T00:33:41.462Z,0
2017-03-05T00:34:41.500Z,0
2017-03-05T00:35:41.049Z,0
2017-03-05T00:36:41.469Z,0
2017-03-05T00:37:40.618Z,0
2017-03-05T00:38:41.367Z,0
2017-03-05T00:39:40.567Z,0
2017-03-05T00:40:41.334Z,0
2017-03-05T00:41:40.532Z,0
2017-03-05T00:42:40.107Z,0
2017-03-05T00:43:40.934Z,0
2017-03-05T00:44:41.258Z,0
2017-03-05T00:45:40.827Z,0
2017-03-05T00:46:40.818Z,0
2017-03-05T00:47:40.763Z,0
2017-03-05T00:48:41.156Z,0
2017-03-05T00:49:41.132Z,0
2017-03-05T00:50:40.720Z,0
2017-03-05T00:51:40.706Z,0
2017-03-05T00:52:41.089Z,0
2017-03-05T00:53:40.260Z,0
2017-03-05T00:54:40.248Z,0
2017-03-05T00:55:41.008Z,0
2017-03-05T00:56:40.987Z,0
2017-03-05T00:57:40.591Z,0
2017-03-05T00:58:40.537Z,0
2017-03-05T00:59:40.156Z,0
2017-03-05T01:00:40.505Z,0
2017-03-05T01:01:40.897Z,0
2017-03-05T01:02:40.875Z,0
2017-03-05T01:03:40.842Z,0
2017-03-05T01:04:40.109Z,0
2017-03-05T01:05:40.391Z,0
2017-03-05T01:06:40.372Z,0
2017-03-05T01:07:40.389Z,0
2017-03-05T01:08:40.729Z,0
2017-03-05T01:09:40.718Z,0
2017-03-05T01:10:40.679Z,0
2017-03-05T01:11:40.276Z,0
2017-03-05T01:12:39.850Z,0
2017-03-05T01:13:39.819Z,0
2017-03-05T01:14:40.229Z,0
2017-03-05T01:15:40.179Z,0
2017-03-05T01:16:40.556Z,0
2017-03-05T01:17:40.147Z,0
2017-03-05T01:18:40.195Z,0
2017-03-05T01:19:40.093Z,0
2017-03-05T01:20:39.675Z,0
2017-03-05T01:21:40.054Z,0
2017-03-05T01:22:39.643Z,0
2017-03-05T01:23:40.013Z,0
2017-03-05T01:24:40.387Z,0
2017-03-05T01:25:39.952Z,0
2017-03-05T01:26:39.951Z,0
2017-03-05T01:27:39.141Z,0
2017-03-05T01:28:39.941Z,0
2017-03-05T01:29:39.496Z,0
2017-03-05T01:30:39.936Z,0
2017-03-05T01:31:39.452Z,0
2017-03-05T01:32:39.839Z,0
2017-03-05T01:33:39.808Z,0
2017-03-05T01:34:40.278Z,0
2017-03-05T01:35:40.138Z,0
2017-03-05T01:36:39.726Z,0
2017-03-05T01:37:39.729Z,0
2017-03-05T01:38:40.200Z,0
2017-03-05T01:39:40.067Z,0
2017-03-05T01:40:39.704Z,0
2017-03-05T01:41:39.259Z,0
2017-03-05T01:42:39.657Z,0
2017-03-05T01:43:39.582Z,0
2017-03-05T01:44:40.082Z,0
2017-03-05T01:45:39.152Z,0
2017-03-05T01:46:39.128Z,0
2017-03-05T01:47:39.891Z,0
2017-03-05T01:48:39.520Z,0
2017-03-05T01:49:39.085Z,0
2017-03-05T01:50:39.469Z,0
2017-03-05T01:51:39.062Z,0
2017-03-05T01:52:39.002Z,0
2017-03-05T01:53:38.990Z,0
2017-03-05T01:54:39.759Z,0
2017-03-05T01:55:39.319Z,0
2017-03-05T01:56:39.297Z,0
2017-03-05T01:57:39.726Z,0
2017-03-05T01:58:39.281Z,0
2017-03-05T01:59:38.876Z,0
2017-03-05T02:00:39.215Z,0
2017-03-05T02:01:39.573Z,0
2017-03-05T02:02:39.184Z,0
2017-03-05T02:03:39.290Z,0
2017-03-05T02:04:39.153Z,0
2017-03-05T02:05:39.491Z,0
2017-03-05T02:06:39.092Z,0
2017-03-05T02:07:39.076Z,0
2017-03-05T02:08:39.052Z,0
2017-03-05T02:09:38.660Z,0
2017-03-05T02:10:39.012Z,0
2017-03-05T02:11:39.076Z,0
2017-03-05T02:12:38.969Z,0
2017-03-05T02:13:39.367Z,0
2017-03-05T02:14:38.967Z,0
2017-03-05T02:15:38.976Z,0
2017-03-05T02:16:39.258Z,0
2017-03-05T02:17:39.365Z,0
2017-03-05T02:18:38.465Z,0
2017-03-05T02:19:39.308Z,0
2017-03-05T02:20:39.204Z,0
2017-03-05T02:21:38.804Z,0
2017-03-05T02:22:38.753Z,0
2017-03-05T02:23:39.132Z,0
2017-03-05T02:24:38.320Z,0
2017-03-05T02:25:38.699Z,0
2017-03-05T02:26:38.690Z,0
2017-03-05T02:27:38.371Z,0
2017-03-05T02:28:38.667Z,0
2017-03-05T02:29:38.599Z,0
2017-03-05T02:30:38.202Z,0
2017-03-05T02:31:38.193Z,0
2017-03-05T02:32:38.527Z,0
2017-03-05T02:33:38.887Z,0
2017-03-05T02:34:38.882Z,0
2017-03-05T02:35:37.709Z,0
2017-03-05T02:36:38.467Z,0
2017-03-05T02:37:38.442Z,0
2017-03-05T02:38:38.517Z,0
2017-03-05T02:39:38.756Z,0
2017-03-05T02:40:38.457Z,0
2017-03-05T02:41:37.953Z,0
2017-03-05T02:42:38.327Z,0
2017-03-05T02:43:38.745Z,0
2017-03-05T02:44:38.381Z,0
2017-03-05T02:45:38.261Z,0
2017-03-05T02:46:38.341Z,0
2017-03-05T02:47:38.201Z,0
2017-03-05T02:48:37.825Z,0
2017-03-05T02:49:38.160Z,0
2017-03-05T02:50:38.523Z,0
2017-03-05T02:51:38.148Z,0
2017-03-05T02:52:38.519Z,0
2017-03-05T02:53:38.482Z,0
2017-03-05T02:54:38.103Z,0
2017-03-05T02:55:38.045Z,0
2017-03-05T02:56:38.065Z,0
2017-03-05T02:57:37.597Z,0
2017-03-05T02:58:37.992Z,0
2017-03-05T02:59:37.556Z,0
2017-03-05T03:00:37.543Z,0
2017-03-05T03:01:38.324Z,0
2017-03-05T03:02:38.275Z,0
2017-03-05T03:03:37.871Z,0
2017-03-05T03:04:37.851Z,0
2017-03-05T03:05:37.838Z,0
2017-03-05T03:06:37.829Z,0
2017-03-05T03:07:38.171Z,0
2017-03-05T03:08:37.760Z,0
2017-03-05T03:09:38.136Z,0
2017-03-05T03:10:37.718Z,0
2017-03-05T03:11:37.688Z,0
2017-03-05T03:12:38.097Z,0
2017-03-05T03:13:38.038Z,0
2017-03-05T03:14:38.025Z,0
2017-03-05T03:15:37.616Z,0
2017-03-05T03:16:37.304Z,0
2017-03-05T03:17:37.174Z,0
2017-03-05T03:18:36.804Z,0
2017-03-05T03:19:37.142Z,0
2017-03-05T03:20:37.504Z,0
2017-03-05T03:21:37.466Z,0
2017-03-05T03:22:37.462Z,0
2017-03-05T03:23:37.052Z,0
2017-03-05T03:24:37.021Z,0
2017-03-05T03:25:37.774Z,0
2017-03-05T03:26:37.779Z,0
2017-03-05T03:27:36.955Z,0
2017-03-05T03:28:37.329Z,0
2017-03-05T03:29:37.301Z,0
2017-03-05T03:30:37.267Z,0
2017-03-05T03:31:37.288Z,0
2017-03-05T03:32:36.860Z,0
2017-03-05T03:33:37.605Z,0
2017-03-05T03:34:37.597Z,0
2017-03-05T03:35:37.266Z,0
2017-03-05T03:36:37.175Z,0
2017-03-05T03:37:36.764Z,0
2017-03-05T03:38:36.733Z,0
2017-03-05T03:39:36.732Z,0
2017-03-05T03:40:37.074Z,0
2017-03-05T03:41:36.653Z,0
2017-03-05T03:42:37.024Z,0
2017-03-05T03:43:37.390Z,0
2017-03-05T03:44:36.662Z,0
2017-03-05T03:45:36.167Z,0
2017-03-05T03:46:37.339Z,0
2017-03-05T03:47:37.293Z,0
2017-03-05T03:48:36.510Z,0
2017-03-05T03:49:36.909Z,0
2017-03-05T03:50:36.865Z,0
2017-03-05T03:51:37.217Z,0
2017-03-05T03:52:36.823Z,0
2017-03-05T03:53:36.465Z,0
2017-03-05T03:54:37.175Z,0
2017-03-05T03:55:36.740Z,0
2017-03-05T03:56:36.734Z,0
2017-03-05T03:57:36.704Z,0
2017-03-05T03:58:36.803Z,0
2017-03-05T03:59:37.052Z,0
2017-03-05T04:00:36.252Z,0
2017-03-05T04:01:35.890Z,0
2017-03-05T04:02:36.219Z,0
2017-03-05T04:03:36.961Z,0
2017-03-05T04:04:36.540Z,0
2017-03-05T04:05:36.527Z,0
2017-03-05T04:06:36.133Z,0
2017-03-05T04:07:36.487Z,0
2017-03-05T04:08:36.865Z,0
2017-03-05T04:09:36.456Z,0
2017-03-05T04:10:36.014Z,0
2017-03-05T04:11:36.825Z,0
2017-03-05T04:12:36.385Z,0
2017-03-05T04:13:36.733Z,0
2017-03-05T04:14:36.335Z,0
2017-03-05T04:15:36.356Z,0
2017-03-05T04:16:36.303Z,0
2017-03-05T04:17:35.892Z,0
2017-03-05T04:18:36.621Z,0
2017-03-05T04:19:35.842Z,0
2017-03-05T04:20:36.201Z,0
2017-03-05T04:21:36.560Z,0
2017-03-05T04:22:36.554Z,0
2017-03-05T04:23:36.129Z,0
2017-03-05T04:24:36.519Z,0
2017-03-05T04:25:36.121Z,0
2017-03-05T04:26:36.460Z,0
2017-03-05T04:27:36.047Z,0
2017-03-05T04:28:36.041Z,0
2017-03-05T04:29:36.017Z,0
2017-03-05T04:30:35.986Z,0
2017-03-05T04:31:35.965Z,0
2017-03-05T04:32:35.939Z,0
2017-03-05T04:33:35.945Z,0
2017-03-05T04:34:35.903Z,0
2017-03-05T04:35:35.942Z,0
2017-03-05T04:36:35.462Z,0
2017-03-05T04:37:36.233Z,0
2017-03-05T04:38:36.191Z,0
2017-03-05T04:39:35.410Z,0
2017-03-05T04:40:35.771Z,0
2017-03-05T04:41:35.739Z,0
2017-03-05T04:42:36.109Z,0
2017-03-05T04:43:36.174Z,0
2017-03-05T04:44:35.668Z,0
2017-03-05T04:45:34.970Z,0
2017-03-05T04:46:36.027Z,0
2017-03-05T04:47:35.207Z,0
2017-03-05T04:48:35.584Z,0
2017-03-05T04:49:35.943Z,0
2017-03-05T04:50:35.162Z,0
2017-03-05T04:51:35.914Z,0
2017-03-05T04:52:35.498Z,0
2017-03-05T04:53:35.884Z,0
2017-03-05T04:54:35.468Z,0
2017-03-05T04:55:35.832Z,0
2017-03-05T04:56:35.822Z,0
2017-03-05T04:57:35.046Z,0
2017-03-05T04:58:35.370Z,0
2017-03-05T04:59:35.469Z,0
2017-03-05T05:00:35.389Z,0
2017-03-05T05:01:35.688Z,0
2017-03-05T05:02:34.973Z,0
2017-03-05T05:03:34.869Z,0
2017-03-05T05:04:35.244Z,0
2017-03-05T05:05:34.830Z,0
2017-03-05T05:06:35.616Z,0
2017-03-05T05:07:35.183Z,0
2017-03-05T05:08:35.145Z,0
2017-03-05T05:09:34.765Z,0
2017-03-05T05:10:35.109Z,0
2017-03-05T05:11:34.713Z,0
2017-03-05T05:12:34.681Z,0
2017-03-05T05:13:35.433Z,0
2017-03-05T05:14:34.652Z,0
2017-03-05T05:15:34.691Z,0
2017-03-05T05:16:34.671Z,0
2017-03-05T05:17:35.020Z,0
2017-03-05T05:18:35.440Z,0
2017-03-05T05:19:34.948Z,0
2017-03-05T05:20:35.389Z,0
2017-03-05T05:21:35.258Z,0
2017-03-05T05:22:34.528Z,0
2017-03-05T05:23:34.835Z,0
2017-03-05T05:24:34.800Z,0
2017-03-05T05:25:34.776Z,0
2017-03-05T05:26:33.964Z,0
2017-03-05T05:27:35.225Z,0
2017-03-05T05:28:34.328Z,0
2017-03-05T05:29:35.087Z,0
2017-03-05T05:30:34.304Z,0
2017-03-05T05:31:34.653Z,0
2017-03-05T05:32:34.642Z,0
2017-03-05T05:33:35.082Z,0
2017-03-05T05:34:34.966Z,0
2017-03-05T05:35:34.198Z,0
2017-03-05T05:36:33.751Z,0
2017-03-05T05:37:34.134Z,0
2017-03-05T05:38:34.120Z,0
2017-03-05T05:39:34.478Z,0
2017-03-05T05:40:34.058Z,0
2017-03-05T05:41:34.036Z,0
2017-03-05T05:42:34.832Z,0
2017-03-05T05:43:34.025Z,0
2017-03-05T05:44:34.770Z,0
2017-03-05T05:45:33.965Z,4
2017-03-05T05:46:34.333Z,4
2017-03-05T05:47:34.324Z,4
2017-03-05T05:48:34.298Z,4
2017-03-05T05:49:34.723Z,4
2017-03-05T05:50:34.635Z,4
2017-03-05T05:51:34.243Z,8
2017-03-05T05:52:33.812Z,8
2017-03-05T05:53:34.221Z,4
2017-03-05T05:54:34.151Z,8
2017-03-05T05:55:33.729Z,8
2017-03-05T05:56:34.543Z,8
2017-03-05T05:57:34.580Z,12
2017-03-05T05:58:34.557Z,12
2017-03-05T05:59:33.260Z,16
2017-03-05T06:00:34.017Z,20
2017-03-05T06:01:34.047Z,24
2017-03-05T06:02:33.986Z,28
2017-03-05T06:03:34.347Z,28
2017-03-05T06:04:34.331Z,32
2017-03-05T06:05:33.918Z,32
2017-03-05T06:06:33.473Z,36
2017-03-05T06:07:33.483Z,40
2017-03-05T06:08:34.224Z,44
2017-03-05T06:09:34.206Z,44
2017-03-05T06:10:33.408Z,44
2017-03-05T06:11:34.208Z,44
2017-03-05T06:12:33.384Z,48
2017-03-05T06:13:33.722Z,52
2017-03-05T06:14:34.201Z,60
2017-03-05T06:15:33.699Z,68
2017-03-05T06:16:33.276Z,68
2017-03-05T06:17:34.029Z,72
2017-03-05T06:18:33.648Z,76
2017-03-05T06:19:32.877Z,92
2017-03-05T06:20:33.197Z,96
2017-03-05T06:21:33.687Z,100
2017-03-05T06:22:33.146Z,108
2017-03-05T06:23:33.524Z,108
2017-03-05T06:24:33.094Z,108
2017-03-05T06:25:33.857Z,112
2017-03-05T06:26:33.461Z,112
2017-03-05T06:27:33.044Z,108
2017-03-05T06:28:33.417Z,116
2017-03-05T06:29:33.381Z,100
2017-03-05T06:30:33.362Z,96
2017-03-05T06:31:32.942Z,108
2017-03-05T06:32:33.703Z,100
2017-03-05T06:33:32.966Z,88
2017-03-05T06:34:33.692Z,92
2017-03-05T06:35:32.580Z,100
2017-03-05T06:36:32.904Z,112
2017-03-05T06:37:33.590Z,124
2017-03-05T06:38:32.808Z,124
2017-03-05T06:39:33.219Z,100
2017-03-05T06:40:33.522Z,92
2017-03-05T06:41:33.116Z,108
2017-03-05T06:42:32.839Z,120
2017-03-05T06:43:32.812Z,180
2017-03-05T06:44:33.441Z,172
2017-03-05T06:45:33.436Z,164
2017-03-05T06:46:33.014Z,156
2017-03-05T06:47:33.403Z,164
2017-03-05T06:48:32.972Z,224
2017-03-05T06:49:32.935Z,300
2017-03-05T06:50:32.544Z,372
2017-03-05T06:51:32.521Z,384
2017-03-05T06:52:32.950Z,356
2017-03-05T06:53:33.308Z,352
2017-03-05T06:54:32.521Z,364
2017-03-05T06:55:32.853Z,328
2017-03-05T06:56:33.200Z,320
2017-03-05T06:57:32.780Z,360
2017-03-05T06:58:32.767Z,348
2017-03-05T06:59:32.836Z,328
2017-03-05T07:00:32.716Z,396
2017-03-05T07:01:32.304Z,316
2017-03-05T07:02:32.676Z,352
2017-03-05T07:03:32.753Z,432
2017-03-05T07:04:32.287Z,468
2017-03-05T07:05:32.636Z,464
2017-03-05T07:06:32.559Z,408
2017-03-05T07:07:32.161Z,376
2017-03-05T07:08:32.535Z,376
2017-03-05T07:09:32.902Z,348
2017-03-05T07:10:32.497Z,404
2017-03-05T07:11:32.091Z,416
2017-03-05T07:12:32.060Z,496
2017-03-05T07:13:32.050Z,604
2017-03-05T07:14:32.427Z,568
2017-03-05T07:15:32.388Z,620
2017-03-05T07:16:32.775Z,604
2017-03-05T07:17:32.333Z,692
2017-03-05T07:18:31.937Z,752
2017-03-05T07:19:32.729Z,692
2017-03-05T07:20:32.302Z,760
2017-03-05T07:21:31.864Z,800
2017-03-05T07:22:32.214Z,776
2017-03-05T07:23:32.207Z,784
2017-03-05T07:24:32.586Z,812
2017-03-05T07:25:32.568Z,948
2017-03-05T07:26:32.533Z,864
2017-03-05T07:27:32.112Z,780
2017-03-05T07:28:32.496Z,764
2017-03-05T07:29:32.071Z,940
2017-03-05T07:30:32.089Z,1292
2017-03-05T07:31:31.673Z,1588
2017-03-05T07:32:31.674Z,1440
2017-03-05T07:33:31.988Z,1652
2017-03-05T07:34:32.367Z,1528
2017-03-05T07:35:32.329Z,1960
2017-03-05T07:36:31.568Z,2676
2017-03-05T07:37:31.907Z,2872
2017-03-05T07:38:31.929Z,3152
2017-03-05T07:39:31.878Z,3368
2017-03-05T07:40:31.962Z,3348
2017-03-05T07:41:31.817Z,2856
2017-03-05T07:42:31.114Z,2884
2017-03-05T07:43:31.385Z,1728
2017-03-05T07:44:32.156Z,1460
2017-03-05T07:45:31.737Z,1604
2017-03-05T07:46:32.102Z,1712
2017-03-05T07:47:32.070Z,1764
2017-03-05T07:48:31.671Z,1952
2017-03-05T07:49:31.262Z,1992
2017-03-05T07:50:31.772Z,1736
2017-03-05T07:51:31.217Z,1252
2017-03-05T07:52:31.635Z,932
2017-03-05T07:53:32.022Z,816
2017-03-05T07:54:31.531Z,856
2017-03-05T07:55:31.635Z,956
2017-03-05T07:56:31.127Z,1028
2017-03-05T07:57:31.460Z,1444
2017-03-05T07:58:31.182Z,3072
2017-03-05T07:59:31.489Z,4260
2017-03-05T08:00:31.815Z,7456
2017-03-05T08:01:31.894Z,24192
2017-03-05T08:02:31.454Z,17280
2017-03-05T08:03:30.963Z,44992
2017-03-05T08:04:31.713Z,29664
2017-03-05T08:05:30.912Z,17248
2017-03-05T08:06:31.382Z,9528
2017-03-05T08:07:31.662Z,7168
2017-03-05T08:08:30.900Z,4700
2017-03-05T08:09:31.310Z,5004
2017-03-05T08:10:30.988Z,5252
2017-03-05T08:11:31.230Z,4944
2017-03-05T08:12:31.189Z,4364
2017-03-05T08:13:31.158Z,3524
2017-03-05T08:14:30.838Z,2540
2017-03-05T08:15:30.708Z,2676
2017-03-05T08:16:30.403Z,3768
2017-03-05T08:17:31.045Z,2284
2017-03-05T08:18:30.662Z,2460
2017-03-05T08:19:31.415Z,4292
2017-03-05T08:20:31.015Z,4828
2017-03-05T08:21:30.615Z,3648
2017-03-05T08:22:30.952Z,2636
2017-03-05T08:23:31.363Z,3412
2017-03-05T08:24:31.327Z,3592
2017-03-05T08:25:30.551Z,2928
2017-03-05T08:26:30.509Z,2404
2017-03-05T08:27:31.369Z,2768
2017-03-05T08:28:30.835Z,3208
2017-03-05T08:29:30.870Z,3176
2017-03-05T08:30:30.031Z,2904
2017-03-05T08:31:30.762Z,4524
2017-03-05T08:32:30.758Z,5120
2017-03-05T08:33:31.198Z,5496
2017-03-05T08:34:31.127Z,5252
2017-03-05T08:35:31.127Z,5400
2017-03-05T08:36:30.296Z,5948
2017-03-05T08:37:31.045Z,5576
2017-03-05T08:38:31.034Z,4472
2017-03-05T08:39:30.624Z,3676
2017-03-05T08:40:30.605Z,3332
2017-03-05T08:41:30.956Z,2636
2017-03-05T08:42:30.993Z,2396
2017-03-05T08:43:30.981Z,2260
2017-03-05T08:44:30.503Z,2192
2017-03-05T08:45:30.492Z,2096
2017-03-05T08:46:30.503Z,1980
2017-03-05T08:47:30.055Z,1832
2017-03-05T08:48:30.029Z,1804
2017-03-05T08:49:30.399Z,1920
2017-03-05T08:50:30.808Z,1896
2017-03-05T08:51:30.357Z,1580
2017-03-05T08:52:30.357Z,1792
2017-03-05T08:53:29.955Z,1980
2017-03-05T08:54:30.746Z,2036
2017-03-05T08:55:30.756Z,2052
2017-03-05T08:56:30.275Z,2116
2017-03-05T08:57:30.232Z,2488
2017-03-05T08:58:30.648Z,2456
2017-03-05T08:59:29.806Z,2356
2017-03-05T09:00:30.562Z,2508
2017-03-05T09:01:30.543Z,2652
2017-03-05T09:02:29.753Z,2472
2017-03-05T09:03:30.489Z,2352
2017-03-05T09:04:30.481Z,2772
2017-03-05T09:05:30.462Z,2960
2017-03-05T09:06:30.446Z,2676
2017-03-05T09:07:30.033Z,3212
2017-03-05T09:08:30.019Z,3404
2017-03-05T09:09:29.630Z,3708
2017-03-05T09:10:30.375Z,3664
2017-03-05T09:11:29.565Z,3816
2017-03-05T09:12:29.935Z,3760
2017-03-05T09:13:30.301Z,4000
2017-03-05T09:14:29.882Z,5516
2017-03-05T09:15:29.857Z,6364
2017-03-05T09:16:30.268Z,6072
2017-03-05T09:17:29.414Z,7972
2017-03-05T09:18:29.879Z,8528
2017-03-05T09:19:29.398Z,13448
2017-03-05T09:20:30.168Z,7772
2017-03-05T09:21:29.736Z,5340
2017-03-05T09:22:30.097Z,6200
2017-03-05T09:23:29.698Z,5396
2017-03-05T09:24:29.292Z,5688
2017-03-05T09:25:30.033Z,8032
2017-03-05T09:26:30.018Z,15736
2017-03-05T09:27:29.622Z,11732
2017-03-05T09:28:29.970Z,32608
2017-03-05T09:29:29.560Z,16480
2017-03-05T09:30:29.551Z,47360
2017-03-05T09:31:29.578Z,44896
2017-03-05T09:32:29.512Z,65312
2017-03-05T09:33:29.495Z,50336
2017-03-05T09:34:29.864Z,48640
2017-03-05T09:35:29.866Z,50592
2017-03-05T09:36:29.846Z,15656
2017-03-05T09:37:29.466Z,31616
2017-03-05T09:38:29.803Z,24480
2017-03-05T09:39:29.783Z,21376
2017-03-05T09:40:29.785Z,37216
2017-03-05T09:41:29.485Z,15892
2017-03-05T09:42:29.348Z,17472
2017-03-05T09:43:29.341Z,24704
2017-03-05T09:44:29.691Z,9872
2017-03-05T09:45:29.303Z,50912
2017-03-05T09:46:29.263Z,62656
2017-03-05T09:47:29.264Z,59488
2017-03-05T09:48:29.610Z,60096
2017-03-05T09:49:28.838Z,59296
2017-03-05T09:50:29.613Z,56832
2017-03-05T09:51:29.304Z,55968
2017-03-05T09:52:29.195Z,39232
2017-03-05T09:53:29.579Z,18240
2017-03-05T09:54:29.166Z,59968
2017-03-05T09:55:29.618Z,51552
2017-03-05T09:56:29.133Z,13772
2017-03-05T09:57:28.814Z,12044
2017-03-05T09:58:29.486Z,33984
2017-03-05T09:59:29.470Z,51648
2017-03-05T10:00:29.068Z,14116
2017-03-05T10:01:29.053Z,11324
2017-03-05T10:02:28.658Z,10096
2017-03-05T10:03:29.498Z,8264
2017-03-05T10:04:29.418Z,9400
2017-03-05T10:05:29.052Z,7808
2017-03-05T10:06:29.360Z,6912
2017-03-05T10:07:28.595Z,9524
2017-03-05T10:08:28.567Z,52128
2017-03-05T10:09:28.947Z,13200
2017-03-05T10:10:28.539Z,12300
2017-03-05T10:11:28.538Z,8120
2017-03-05T10:12:28.502Z,7764
2017-03-05T10:13:29.370Z,9560
2017-03-05T10:14:28.841Z,10112
2017-03-05T10:15:28.432Z,50336
2017-03-05T10:16:29.245Z,22368
2017-03-05T10:17:28.838Z,42208
2017-03-05T10:18:28.438Z,43296
2017-03-05T10:19:28.821Z,52128
2017-03-05T10:20:28.364Z,50624
2017-03-05T10:21:29.135Z,44640
2017-03-05T10:22:28.718Z,42912
2017-03-05T10:23:29.089Z,42560
2017-03-05T10:24:28.306Z,43872
2017-03-05T10:25:29.075Z,45184
2017-03-05T10:26:28.670Z,46432
2017-03-05T10:27:28.675Z,45088
2017-03-05T10:28:29.048Z,46656
2017-03-05T10:29:29.011Z,43360
2017-03-05T10:30:28.593Z,41248
2017-03-05T10:31:28.989Z,37920
2017-03-05T10:32:28.972Z,9472
2017-03-05T10:33:28.574Z,33792
2017-03-05T10:34:28.942Z,35040
2017-03-05T10:35:28.564Z,36768
2017-03-05T10:36:28.554Z,39616
2017-03-05T10:37:28.557Z,42880
2017-03-05T10:38:28.520Z,38784
2017-03-05T10:39:28.508Z,38432
2017-03-05T10:40:28.493Z,35424
2017-03-05T10:41:28.869Z,32128
2017-03-05T10:42:28.450Z,36512
2017-03-05T10:43:28.872Z,35872
2017-03-05T10:44:28.437Z,33728
2017-03-05T10:45:28.795Z,34784
2017-03-05T10:46:28.408Z,36352
2017-03-05T10:47:28.803Z,5832
2017-03-05T10:48:28.796Z,5776
2017-03-05T10:49:28.472Z,9824
2017-03-05T10:50:27.585Z,34080
2017-03-05T10:51:27.582Z,5880
2017-03-05T10:52:27.971Z,5016
2017-03-05T10:53:28.380Z,5640
2017-03-05T10:54:28.320Z,6232
2017-03-05T10:55:28.681Z,6404
2017-03-05T10:56:28.303Z,13304
2017-03-05T10:57:28.315Z,34720
2017-03-05T10:58:28.249Z,27072
2017-03-05T10:59:28.287Z,35680
2017-03-05T11:00:28.206Z,20000
2017-03-05T11:01:28.710Z,19008
2017-03-05T11:02:28.580Z,11672
2017-03-05T11:03:28.189Z,8792
2017-03-05T11:04:28.545Z,20000
2017-03-05T11:05:27.755Z,5716
2017-03-05T11:06:28.544Z,5848
2017-03-05T11:07:27.725Z,6740
2017-03-05T11:08:28.092Z,5972
2017-03-05T11:09:28.133Z,5820
2017-03-05T11:10:27.691Z,5620
2017-03-05T11:11:28.053Z,5848
2017-03-05T11:12:28.030Z,6556
2017-03-05T11:13:28.452Z,6996
2017-03-05T11:14:27.617Z,6504
2017-03-05T11:15:27.680Z,6240
2017-03-05T11:16:28.391Z,5528
2017-03-05T11:17:27.590Z,6092
2017-03-05T11:18:27.978Z,6632
2017-03-05T11:19:27.680Z,7264
2017-03-05T11:20:27.508Z,18720
2017-03-05T11:21:28.295Z,24384
2017-03-05T11:22:27.875Z,9888
2017-03-05T11:23:27.866Z,7972
2017-03-05T11:24:27.835Z,9136
2017-03-05T11:25:28.223Z,21536
2017-03-05T11:26:27.828Z,21312
2017-03-05T11:27:28.161Z,20384
2017-03-05T11:28:28.173Z,14928
2017-03-05T11:29:28.136Z,25696
2017-03-05T11:30:28.140Z,21952
2017-03-05T11:31:27.389Z,22880
2017-03-05T11:32:27.711Z,16128
2017-03-05T11:33:27.299Z,7196
2017-03-05T11:34:27.708Z,22368
2017-03-05T11:35:27.312Z,25280
2017-03-05T11:36:27.637Z,8564
2017-03-05T11:37:27.237Z,21408
2017-03-05T11:38:27.224Z,7168
2017-03-05T11:39:27.315Z,6684
2017-03-05T11:40:27.254Z,6204
2017-03-05T11:41:27.165Z,6440
2017-03-05T11:42:27.546Z,6252
2017-03-05T11:43:27.534Z,6556
2017-03-05T11:44:27.521Z,6376
2017-03-05T11:45:27.590Z,6160
2017-03-05T11:46:27.097Z,7260
2017-03-05T11:47:27.072Z,8640
2017-03-05T11:48:27.072Z,8532
2017-03-05T11:49:27.438Z,7768
2017-03-05T11:50:27.019Z,19552
2017-03-05T11:51:27.126Z,17856
2017-03-05T11:52:27.888Z,21568
2017-03-05T11:53:27.368Z,21664
2017-03-05T11:54:27.372Z,6300
2017-03-05T11:55:26.917Z,6152
2017-03-05T11:56:27.397Z,5768
2017-03-05T11:57:26.896Z,5364
2017-03-05T11:58:27.765Z,4960
2017-03-05T11:59:27.251Z,5424
2017-03-05T12:00:27.317Z,6212
2017-03-05T12:01:27.262Z,13180
2017-03-05T12:02:27.214Z,16256
2017-03-05T12:03:27.193Z,13544
2017-03-05T12:04:26.882Z,6640
2017-03-05T12:05:27.133Z,6084
2017-03-05T12:06:27.209Z,6344
2017-03-05T12:07:26.732Z,5608
2017-03-05T12:08:27.518Z,5252
2017-03-05T12:09:26.698Z,4980
2017-03-05T12:10:27.081Z,4600
2017-03-05T12:11:27.479Z,4472
2017-03-05T12:12:27.436Z,4592
2017-03-05T12:13:26.998Z,4964
2017-03-05T12:14:27.406Z,8648
2017-03-05T12:15:26.613Z,13272
2017-03-05T12:16:27.444Z,6916
2017-03-05T12:17:27.337Z,22944
2017-03-05T12:18:27.364Z,5056
2017-03-05T12:19:26.932Z,4488
2017-03-05T12:20:26.952Z,4516
2017-03-05T12:21:26.924Z,4820
2017-03-05T12:22:26.848Z,6720
2017-03-05T12:23:26.477Z,7132
2017-03-05T12:24:27.290Z,11292
2017-03-05T12:25:27.250Z,8916
2017-03-05T12:26:26.819Z,5632
2017-03-05T12:27:26.777Z,8992
2017-03-05T12:28:26.818Z,5964
2017-03-05T12:29:26.747Z,15492
2017-03-05T12:30:26.718Z,19072
2017-03-05T12:31:27.101Z,20256
2017-03-05T12:32:26.678Z,15776
2017-03-05T12:33:26.296Z,17152
2017-03-05T12:34:26.654Z,18624
2017-03-05T12:35:27.032Z,18176
2017-03-05T12:36:26.647Z,17568
2017-03-05T12:37:26.630Z,17952
2017-03-05T12:38:26.581Z,17536
2017-03-05T12:39:26.981Z,18816
2017-03-05T12:40:26.564Z,5960
2017-03-05T12:41:26.553Z,5124
2017-03-05T12:42:26.527Z,5008
2017-03-05T12:43:26.502Z,5004
2017-03-05T12:44:26.875Z,5100
2017-03-05T12:45:26.470Z,5164
2017-03-05T12:46:26.458Z,5060
2017-03-05T12:47:25.664Z,5200
2017-03-05T12:48:26.434Z,5304
2017-03-05T12:49:26.407Z,4796
2017-03-05T12:50:25.996Z,4220
2017-03-05T12:51:25.972Z,3804
2017-03-05T12:52:26.346Z,3584
2017-03-05T12:53:25.943Z,3500
2017-03-05T12:54:26.726Z,3732
2017-03-05T12:55:26.293Z,3804
2017-03-05T12:56:26.663Z,3468
2017-03-05T12:57:26.268Z,3228
2017-03-05T12:58:26.611Z,2924
2017-03-05T12:59:25.841Z,2784
2017-03-05T13:00:26.589Z,2780
2017-03-05T13:01:26.182Z,3028
2017-03-05T13:02:25.791Z,3128
2017-03-05T13:03:26.538Z,3396
2017-03-05T13:04:26.517Z,3584
2017-03-05T13:05:25.747Z,3780
2017-03-05T13:06:25.718Z,3584
2017-03-05T13:07:26.091Z,3192
2017-03-05T13:08:25.668Z,2628
2017-03-05T13:09:26.556Z,2284
2017-03-05T13:10:26.040Z,2124
2017-03-05T13:11:26.406Z,2100
2017-03-05T13:12:25.615Z,2132
2017-03-05T13:13:26.025Z,2312
2017-03-05T13:14:25.215Z,2656
2017-03-05T13:15:25.926Z,3624
2017-03-05T13:16:25.902Z,5732
2017-03-05T13:17:25.503Z,6680
2017-03-05T13:18:25.904Z,12432
2017-03-05T13:19:25.610Z,6584
2017-03-05T13:20:25.834Z,6136
2017-03-05T13:21:25.870Z,5844
2017-03-05T13:22:25.800Z,5192
2017-03-05T13:23:26.171Z,11492
2017-03-05T13:24:25.778Z,8124
2017-03-05T13:25:25.788Z,3460
2017-03-05T13:26:25.465Z,3316
2017-03-05T13:27:26.157Z,3096
2017-03-05T13:28:25.687Z,2964
2017-03-05T13:29:25.338Z,2972
2017-03-05T13:30:26.048Z,2936
2017-03-05T13:31:26.124Z,3128
2017-03-05T13:32:25.615Z,3528
2017-03-05T13:33:25.686Z,4160
2017-03-05T13:34:25.587Z,6460
2017-03-05T13:35:25.571Z,12236
2017-03-05T13:36:25.142Z,12640
2017-03-05T13:37:25.970Z,12908
2017-03-05T13:38:25.504Z,6308
2017-03-05T13:39:25.611Z,6948
2017-03-05T13:40:25.950Z,5944
2017-03-05T13:41:25.473Z,11104
2017-03-05T13:42:25.459Z,4596
2017-03-05T13:43:25.116Z,4116
2017-03-05T13:44:25.814Z,4004
2017-03-05T13:45:25.420Z,4028
2017-03-05T13:46:25.838Z,5096
2017-03-05T13:47:25.027Z,11604
2017-03-05T13:48:25.072Z,11584
2017-03-05T13:49:25.325Z,11556
2017-03-05T13:50:25.313Z,11664
2017-03-05T13:51:25.288Z,4108
2017-03-05T13:52:25.760Z,5176
2017-03-05T13:53:25.028Z,11188